sensor_id;sensor_type;location;lat;lon;timestamp;P1;durP1;ratioP1;P2;durP2;ratioP2
48849;SDS011;63210;53.370;6.770;2022-12-18T00:00:44;110.50;;;34.30;;
48849;SDS011;63210;53.370;6.770;2022-12-18T00:03:09;118.28;;;35.20;;
48849;SDS011;63210;53.370;6.770;2022-12-18T00:05:35;97.18;;;32.42;;
48849;SDS011;63210;53.370;6.770;2022-12-18T00:08:00;104.30;;;32.20;;
48849;SDS011;63210;53.370;6.770;2022-12-18T00:10:44;108.45;;;32.55;;
48849;SDS011;63210;53.370;6.770;2022-12-18T00:13:10;90.88;;;29.65;;
48849;SDS011;63210;53.370;6.770;2022-12-18T00:15:36;76.50;;;24.48;;
48849;SDS011;63210;53.370;6.770;2022-12-18T00:18:02;112.68;;;34.58;;
48849;SDS011;63210;53.370;6.770;2022-12-18T00:20:27;126.50;;;34.35;;
48849;SDS011;63210;53.370;6.770;2022-12-18T00:22:53;93.95;;;30.10;;
48849;SDS011;63210;53.370;6.770;2022-12-18T00:25:18;90.50;;;29.98;;
48849;SDS011;63210;53.370;6.770;2022-12-18T00:27:46;74.53;;;23.67;;
48849;SDS011;63210;53.370;6.770;2022-12-18T00:30:11;76.90;;;24.90;;
48849;SDS011;63210;53.370;6.770;2022-12-18T00:32:37;69.90;;;24.65;;
48849;SDS011;63210;53.370;6.770;2022-12-18T00:35:02;99.20;;;31.55;;
48849;SDS011;63210;53.370;6.770;2022-12-18T00:37:28;75.70;;;25.75;;
48849;SDS011;63210;53.370;6.770;2022-12-18T00:39:53;104.20;;;29.98;;
48849;SDS011;63210;53.370;6.770;2022-12-18T00:42:19;96.22;;;29.75;;
48849;SDS011;63210;53.370;6.770;2022-12-18T00:45:03;88.15;;;27.02;;
48849;SDS011;63210;53.370;6.770;2022-12-18T00:47:28;77.65;;;27.15;;
48849;SDS011;63210;53.370;6.770;2022-12-18T00:49:53;62.20;;;21.48;;
48849;SDS011;63210;53.370;6.770;2022-12-18T00:52:19;60.72;;;21.30;;
48849;SDS011;63210;53.370;6.770;2022-12-18T00:54:44;95.70;;;30.00;;
48849;SDS011;63210;53.370;6.770;2022-12-18T00:57:09;113.30;;;34.33;;
48849;SDS011;63210;53.370;6.770;2022-12-18T00:59:38;103.93;;;30.40;;
48849;SDS011;63210;53.370;6.770;2022-12-18T01:02:03;103.05;;;30.83;;
48849;SDS011;63210;53.370;6.770;2022-12-18T01:04:32;85.80;;;26.65;;
48849;SDS011;63210;53.370;6.770;2022-12-18T01:06:58;80.78;;;27.33;;
48849;SDS011;63210;53.370;6.770;2022-12-18T01:09:26;80.65;;;26.83;;
48849;SDS011;63210;53.370;6.770;2022-12-18T01:11:52;95.75;;;29.00;;
48849;SDS011;63210;53.370;6.770;2022-12-18T01:14:17;95.05;;;31.33;;
48849;SDS011;63210;53.370;6.770;2022-12-18T01:16:42;73.65;;;24.65;;
48849;SDS011;63210;53.370;6.770;2022-12-18T01:19:08;92.88;;;31.40;;
48849;SDS011;63210;53.370;6.770;2022-12-18T01:21:33;95.78;;;31.67;;
48849;SDS011;63210;53.370;6.770;2022-12-18T01:23:59;91.70;;;30.17;;
48849;SDS011;63210;53.370;6.770;2022-12-18T01:26:27;72.78;;;24.08;;
48849;SDS011;63210;53.370;6.770;2022-12-18T01:28:57;95.47;;;30.98;;
48849;SDS011;63210;53.370;6.770;2022-12-18T01:31:27;86.07;;;27.55;;
48849;SDS011;63210;53.370;6.770;2022-12-18T01:33:52;92.93;;;31.23;;
48849;SDS011;63210;53.370;6.770;2022-12-18T01:36:22;89.63;;;29.38;;
48849;SDS011;63210;53.370;6.770;2022-12-18T01:38:48;96.15;;;28.08;;
48849;SDS011;63210;53.370;6.770;2022-12-18T01:41:14;88.28;;;29.40;;
48849;SDS011;63210;53.370;6.770;2022-12-18T01:43:41;97.25;;;29.55;;
48849;SDS011;63210;53.370;6.770;2022-12-18T01:46:06;68.75;;;22.63;;
48849;SDS011;63210;53.370;6.770;2022-12-18T01:48:32;97.45;;;30.23;;
48849;SDS011;63210;53.370;6.770;2022-12-18T01:50:57;93.07;;;28.55;;
48849;SDS011;63210;53.370;6.770;2022-12-18T01:53:22;93.57;;;27.70;;
48849;SDS011;63210;53.370;6.770;2022-12-18T01:55:53;94.90;;;26.15;;
48849;SDS011;63210;53.370;6.770;2022-12-18T02:00:45;106.13;;;33.07;;
48849;SDS011;63210;53.370;6.770;2022-12-18T02:03:10;98.82;;;30.27;;
48849;SDS011;63210;53.370;6.770;2022-12-18T02:10:28;91.88;;;29.48;;
48849;SDS011;63210;53.370;6.770;2022-12-18T02:13:01;75.35;;;25.83;;
48849;SDS011;63210;53.370;6.770;2022-12-18T02:15:51;81.75;;;27.35;;
48849;SDS011;63210;53.370;6.770;2022-12-18T02:18:15;92.97;;;29.45;;
48849;SDS011;63210;53.370;6.770;2022-12-18T02:28:23;88.25;;;28.25;;
48849;SDS011;63210;53.370;6.770;2022-12-18T02:30:49;80.65;;;27.80;;
48849;SDS011;63210;53.370;6.770;2022-12-18T02:33:19;77.22;;;26.17;;
48849;SDS011;63210;53.370;6.770;2022-12-18T02:35:48;104.38;;;33.00;;
48849;SDS011;63210;53.370;6.770;2022-12-18T02:38:14;78.03;;;28.08;;
48849;SDS011;63210;53.370;6.770;2022-12-18T02:40:41;89.90;;;26.98;;
48849;SDS011;63210;53.370;6.770;2022-12-18T02:43:11;87.45;;;29.10;;
48849;SDS011;63210;53.370;6.770;2022-12-18T02:45:50;96.38;;;27.98;;
48849;SDS011;63210;53.370;6.770;2022-12-18T02:48:17;88.25;;;29.80;;
48849;SDS011;63210;53.370;6.770;2022-12-18T02:50:50;83.00;;;26.20;;
48849;SDS011;63210;53.370;6.770;2022-12-18T02:53:30;84.78;;;28.27;;
48849;SDS011;63210;53.370;6.770;2022-12-18T02:56:19;88.10;;;27.25;;
48849;SDS011;63210;53.370;6.770;2022-12-18T03:04:08;59.50;;;22.42;;
48849;SDS011;63210;53.370;6.770;2022-12-18T03:06:53;83.40;;;25.42;;
48849;SDS011;63210;53.370;6.770;2022-12-18T03:09:42;77.30;;;26.67;;
48849;SDS011;63210;53.370;6.770;2022-12-18T03:15:25;90.80;;;30.50;;
48849;SDS011;63210;53.370;6.770;2022-12-18T03:17:56;82.93;;;28.92;;
48849;SDS011;63210;53.370;6.770;2022-12-18T03:20:24;81.97;;;27.13;;
48849;SDS011;63210;53.370;6.770;2022-12-18T03:23:02;90.63;;;27.73;;
48849;SDS011;63210;53.370;6.770;2022-12-18T03:25:30;80.18;;;26.02;;
48849;SDS011;63210;53.370;6.770;2022-12-18T03:28:02;92.63;;;30.95;;
48849;SDS011;63210;53.370;6.770;2022-12-18T03:30:38;87.72;;;28.80;;
48849;SDS011;63210;53.370;6.770;2022-12-18T03:33:40;99.40;;;29.15;;
48849;SDS011;63210;53.370;6.770;2022-12-18T03:38:28;87.18;;;29.42;;
48849;SDS011;63210;53.370;6.770;2022-12-18T03:40:58;86.03;;;27.48;;
48849;SDS011;63210;53.370;6.770;2022-12-18T03:43:31;73.60;;;24.00;;
48849;SDS011;63210;53.370;6.770;2022-12-18T03:49:04;83.72;;;27.20;;
48849;SDS011;63210;53.370;6.770;2022-12-18T03:51:40;79.63;;;26.45;;
48849;SDS011;63210;53.370;6.770;2022-12-18T03:54:07;81.18;;;28.75;;
48849;SDS011;63210;53.370;6.770;2022-12-18T03:56:36;81.80;;;27.42;;
48849;SDS011;63210;53.370;6.770;2022-12-18T03:59:05;79.68;;;26.45;;
48849;SDS011;63210;53.370;6.770;2022-12-18T04:01:38;104.18;;;34.38;;
48849;SDS011;63210;53.370;6.770;2022-12-18T04:04:04;83.88;;;27.95;;
48849;SDS011;63210;53.370;6.770;2022-12-18T04:06:30;100.20;;;34.55;;
48849;SDS011;63210;53.370;6.770;2022-12-18T04:09:00;88.82;;;29.58;;
48849;SDS011;63210;53.370;6.770;2022-12-18T04:11:25;97.70;;;31.80;;
48849;SDS011;63210;53.370;6.770;2022-12-18T04:13:52;75.10;;;24.75;;
48849;SDS011;63210;53.370;6.770;2022-12-18T04:16:20;86.22;;;28.90;;
48849;SDS011;63210;53.370;6.770;2022-12-18T04:18:45;82.95;;;28.02;;
48849;SDS011;63210;53.370;6.770;2022-12-18T04:21:10;83.13;;;29.33;;
48849;SDS011;63210;53.370;6.770;2022-12-18T04:23:36;94.30;;;30.15;;
48849;SDS011;63210;53.370;6.770;2022-12-18T04:26:07;93.47;;;30.63;;
48849;SDS011;63210;53.370;6.770;2022-12-18T04:28:33;82.50;;;27.80;;
48849;SDS011;63210;53.370;6.770;2022-12-18T04:30:58;86.35;;;28.58;;
48849;SDS011;63210;53.370;6.770;2022-12-18T04:33:23;79.45;;;28.13;;
48849;SDS011;63210;53.370;6.770;2022-12-18T04:35:56;74.80;;;24.95;;
48849;SDS011;63210;53.370;6.770;2022-12-18T04:38:24;82.53;;;28.55;;
48849;SDS011;63210;53.370;6.770;2022-12-18T04:40:55;85.13;;;28.83;;
48849;SDS011;63210;53.370;6.770;2022-12-18T04:43:21;79.45;;;27.23;;
48849;SDS011;63210;53.370;6.770;2022-12-18T04:45:46;92.90;;;29.80;;
48849;SDS011;63210;53.370;6.770;2022-12-18T04:48:14;72.63;;;26.70;;
48849;SDS011;63210;53.370;6.770;2022-12-18T04:50:40;75.50;;;25.15;;
48849;SDS011;63210;53.370;6.770;2022-12-18T04:53:05;83.93;;;28.00;;
48849;SDS011;63210;53.370;6.770;2022-12-18T04:55:33;77.22;;;27.70;;
48849;SDS011;63210;53.370;6.770;2022-12-18T04:58:01;80.68;;;27.13;;
48849;SDS011;63210;53.370;6.770;2022-12-18T05:00:26;91.70;;;30.42;;
48849;SDS011;63210;53.370;6.770;2022-12-18T05:02:54;92.68;;;28.88;;
48849;SDS011;63210;53.370;6.770;2022-12-18T05:05:19;84.38;;;27.80;;
48849;SDS011;63210;53.370;6.770;2022-12-18T05:07:46;81.35;;;26.92;;
48849;SDS011;63210;53.370;6.770;2022-12-18T05:10:18;53.58;;;19.80;;
48849;SDS011;63210;53.370;6.770;2022-12-18T05:12:43;86.75;;;28.85;;
48849;SDS011;63210;53.370;6.770;2022-12-18T05:15:26;78.32;;;27.75;;
48849;SDS011;63210;53.370;6.770;2022-12-18T05:17:51;68.88;;;26.10;;
48849;SDS011;63210;53.370;6.770;2022-12-18T05:20:17;57.42;;;19.73;;
48849;SDS011;63210;53.370;6.770;2022-12-18T05:22:56;80.07;;;27.33;;
48849;SDS011;63210;53.370;6.770;2022-12-18T05:25:24;75.68;;;28.10;;
48849;SDS011;63210;53.370;6.770;2022-12-18T05:27:49;76.38;;;29.48;;
48849;SDS011;63210;53.370;6.770;2022-12-18T05:30:18;79.95;;;27.23;;
48849;SDS011;63210;53.370;6.770;2022-12-18T05:32:43;86.20;;;28.20;;
48849;SDS011;63210;53.370;6.770;2022-12-18T05:35:09;76.03;;;27.30;;
48849;SDS011;63210;53.370;6.770;2022-12-18T05:37:35;65.63;;;24.02;;
48849;SDS011;63210;53.370;6.770;2022-12-18T05:40:03;67.00;;;24.27;;
48849;SDS011;63210;53.370;6.770;2022-12-18T05:42:31;68.50;;;24.60;;
48849;SDS011;63210;53.370;6.770;2022-12-18T05:45:02;63.97;;;27.42;;
48849;SDS011;63210;53.370;6.770;2022-12-18T05:47:27;68.82;;;23.45;;
48849;SDS011;63210;53.370;6.770;2022-12-18T05:49:53;61.75;;;22.38;;
48849;SDS011;63210;53.370;6.770;2022-12-18T05:52:27;71.47;;;24.75;;
48849;SDS011;63210;53.370;6.770;2022-12-18T05:57:20;73.63;;;23.67;;
48849;SDS011;63210;53.370;6.770;2022-12-18T05:59:45;63.15;;;22.90;;
48849;SDS011;63210;53.370;6.770;2022-12-18T06:02:11;71.60;;;24.73;;
48849;SDS011;63210;53.370;6.770;2022-12-18T06:04:40;64.88;;;23.33;;
48849;SDS011;63210;53.370;6.770;2022-12-18T06:07:07;63.70;;;22.70;;
48849;SDS011;63210;53.370;6.770;2022-12-18T06:09:33;65.63;;;24.63;;
48849;SDS011;63210;53.370;6.770;2022-12-18T06:11:58;65.22;;;23.35;;
48849;SDS011;63210;53.370;6.770;2022-12-18T06:14:27;63.47;;;24.95;;
48849;SDS011;63210;53.370;6.770;2022-12-18T06:16:52;58.03;;;22.88;;
48849;SDS011;63210;53.370;6.770;2022-12-18T06:19:17;48.58;;;20.65;;
48849;SDS011;63210;53.370;6.770;2022-12-18T06:21:43;55.17;;;22.52;;
48849;SDS011;63210;53.370;6.770;2022-12-18T06:24:08;57.88;;;22.20;;
48849;SDS011;63210;53.370;6.770;2022-12-18T06:26:38;52.40;;;22.08;;
48849;SDS011;63210;53.370;6.770;2022-12-18T06:29:05;59.95;;;21.67;;
48849;SDS011;63210;53.370;6.770;2022-12-18T06:31:30;58.83;;;22.15;;
48849;SDS011;63210;53.370;6.770;2022-12-18T06:33:59;54.30;;;20.17;;
48849;SDS011;63210;53.370;6.770;2022-12-18T06:36:29;65.45;;;23.08;;
48849;SDS011;63210;53.370;6.770;2022-12-18T06:39:00;42.08;;;17.20;;
48849;SDS011;63210;53.370;6.770;2022-12-18T06:41:26;45.97;;;20.48;;
48849;SDS011;63210;53.370;6.770;2022-12-18T06:44:00;52.72;;;20.77;;
48849;SDS011;63210;53.370;6.770;2022-12-18T06:46:26;43.25;;;18.80;;
48849;SDS011;63210;53.370;6.770;2022-12-18T06:48:54;51.15;;;20.85;;
48849;SDS011;63210;53.370;6.770;2022-12-18T06:51:27;44.00;;;18.25;;
48849;SDS011;63210;53.370;6.770;2022-12-18T06:53:53;45.67;;;18.67;;
48849;SDS011;63210;53.370;6.770;2022-12-18T06:56:23;41.97;;;19.48;;
48849;SDS011;63210;53.370;6.770;2022-12-18T06:58:48;43.90;;;18.80;;
48849;SDS011;63210;53.370;6.770;2022-12-18T07:01:17;38.35;;;17.10;;
48849;SDS011;63210;53.370;6.770;2022-12-18T07:03:45;44.17;;;18.98;;
48849;SDS011;63210;53.370;6.770;2022-12-18T07:06:14;30.58;;;14.27;;
48849;SDS011;63210;53.370;6.770;2022-12-18T07:08:43;36.42;;;16.23;;
48849;SDS011;63210;53.370;6.770;2022-12-18T07:11:08;35.38;;;15.52;;
48849;SDS011;63210;53.370;6.770;2022-12-18T07:13:34;36.92;;;16.90;;
48849;SDS011;63210;53.370;6.770;2022-12-18T07:16:09;40.55;;;18.65;;
48849;SDS011;63210;53.370;6.770;2022-12-18T07:18:34;35.60;;;15.13;;
48849;SDS011;63210;53.370;6.770;2022-12-18T07:21:04;43.00;;;16.25;;
48849;SDS011;63210;53.370;6.770;2022-12-18T07:23:33;27.05;;;11.88;;
48849;SDS011;63210;53.370;6.770;2022-12-18T07:26:06;47.17;;;18.60;;
48849;SDS011;63210;53.370;6.770;2022-12-18T07:28:32;42.78;;;20.15;;
48849;SDS011;63210;53.370;6.770;2022-12-18T07:30:57;38.63;;;16.90;;
48849;SDS011;63210;53.370;6.770;2022-12-18T07:33:24;28.17;;;14.45;;
48849;SDS011;63210;53.370;6.770;2022-12-18T07:35:49;41.35;;;20.52;;
48849;SDS011;63210;53.370;6.770;2022-12-18T07:38:14;44.67;;;21.25;;
48849;SDS011;63210;53.370;6.770;2022-12-18T07:40:40;41.50;;;18.30;;
48849;SDS011;63210;53.370;6.770;2022-12-18T07:43:08;38.75;;;18.27;;
48849;SDS011;63210;53.370;6.770;2022-12-18T07:45:36;46.15;;;17.88;;
48849;SDS011;63210;53.370;6.770;2022-12-18T07:48:05;49.47;;;20.45;;
48849;SDS011;63210;53.370;6.770;2022-12-18T07:50:30;46.85;;;18.35;;
48849;SDS011;63210;53.370;6.770;2022-12-18T07:52:58;48.67;;;20.67;;
48849;SDS011;63210;53.370;6.770;2022-12-18T07:55:26;52.13;;;21.17;;
48849;SDS011;63210;53.370;6.770;2022-12-18T07:57:51;40.90;;;17.63;;
48849;SDS011;63210;53.370;6.770;2022-12-18T08:00:20;43.97;;;19.40;;
48849;SDS011;63210;53.370;6.770;2022-12-18T08:02:48;43.75;;;19.48;;
48849;SDS011;63210;53.370;6.770;2022-12-18T08:05:14;51.40;;;20.30;;
48849;SDS011;63210;53.370;6.770;2022-12-18T08:07:44;48.53;;;21.92;;
48849;SDS011;63210;53.370;6.770;2022-12-18T08:10:12;43.20;;;20.33;;
48849;SDS011;63210;53.370;6.770;2022-12-18T08:12:40;42.28;;;18.15;;
48849;SDS011;63210;53.370;6.770;2022-12-18T08:15:08;37.55;;;17.05;;
48849;SDS011;63210;53.370;6.770;2022-12-18T08:17:34;39.42;;;18.83;;
48849;SDS011;63210;53.370;6.770;2022-12-18T08:20:11;49.50;;;20.73;;
48849;SDS011;63210;53.370;6.770;2022-12-18T08:22:36;35.92;;;19.85;;
48849;SDS011;63210;53.370;6.770;2022-12-18T08:25:02;44.05;;;19.75;;
48849;SDS011;63210;53.370;6.770;2022-12-18T08:27:31;43.10;;;18.73;;
48849;SDS011;63210;53.370;6.770;2022-12-18T08:29:58;34.15;;;16.05;;
48849;SDS011;63210;53.370;6.770;2022-12-18T08:32:27;35.25;;;16.42;;
48849;SDS011;63210;53.370;6.770;2022-12-18T08:34:55;39.75;;;18.48;;
48849;SDS011;63210;53.370;6.770;2022-12-18T08:37:21;32.17;;;17.10;;
48849;SDS011;63210;53.370;6.770;2022-12-18T08:39:46;39.35;;;19.83;;
48849;SDS011;63210;53.370;6.770;2022-12-18T08:42:11;40.72;;;18.65;;
48849;SDS011;63210;53.370;6.770;2022-12-18T08:44:58;35.17;;;17.75;;
48849;SDS011;63210;53.370;6.770;2022-12-18T08:47:24;35.20;;;17.38;;
48849;SDS011;63210;53.370;6.770;2022-12-18T08:49:51;37.85;;;19.15;;
48849;SDS011;63210;53.370;6.770;2022-12-18T08:52:19;32.50;;;15.77;;
48849;SDS011;63210;53.370;6.770;2022-12-18T08:54:44;31.85;;;16.75;;
48849;SDS011;63210;53.370;6.770;2022-12-18T08:57:10;33.15;;;15.32;;
48849;SDS011;63210;53.370;6.770;2022-12-18T08:59:41;32.45;;;15.52;;
48849;SDS011;63210;53.370;6.770;2022-12-18T09:02:08;31.60;;;16.52;;
48849;SDS011;63210;53.370;6.770;2022-12-18T09:04:37;29.15;;;14.55;;
48849;SDS011;63210;53.370;6.770;2022-12-18T09:07:04;33.85;;;15.35;;
48849;SDS011;63210;53.370;6.770;2022-12-18T09:09:36;24.63;;;13.48;;
48849;SDS011;63210;53.370;6.770;2022-12-18T09:12:04;26.45;;;14.00;;
48849;SDS011;63210;53.370;6.770;2022-12-18T09:14:30;26.60;;;12.15;;
48849;SDS011;63210;53.370;6.770;2022-12-18T09:16:58;30.23;;;15.45;;
48849;SDS011;63210;53.370;6.770;2022-12-18T09:19:26;30.95;;;14.43;;
48849;SDS011;63210;53.370;6.770;2022-12-18T09:21:52;25.90;;;12.32;;
48849;SDS011;63210;53.370;6.770;2022-12-18T09:24:17;26.15;;;13.13;;
48849;SDS011;63210;53.370;6.770;2022-12-18T09:26:43;28.27;;;14.45;;
48849;SDS011;63210;53.370;6.770;2022-12-18T09:29:08;26.17;;;14.32;;
48849;SDS011;63210;53.370;6.770;2022-12-18T09:31:43;21.63;;;9.07;;
48849;SDS011;63210;53.370;6.770;2022-12-18T09:34:08;24.80;;;10.80;;
48849;SDS011;63210;53.370;6.770;2022-12-18T09:36:37;23.58;;;11.82;;
48849;SDS011;63210;53.370;6.770;2022-12-18T09:39:02;29.40;;;15.98;;
48849;SDS011;63210;53.370;6.770;2022-12-18T09:44:03;29.38;;;13.80;;
48849;SDS011;63210;53.370;6.770;2022-12-18T09:46:30;27.20;;;15.65;;
48849;SDS011;63210;53.370;6.770;2022-12-18T09:48:59;26.52;;;15.20;;
48849;SDS011;63210;53.370;6.770;2022-12-18T09:51:30;23.10;;;12.50;;
48849;SDS011;63210;53.370;6.770;2022-12-18T09:54:05;16.48;;;10.05;;
48849;SDS011;63210;53.370;6.770;2022-12-18T09:56:34;24.48;;;14.30;;
48849;SDS011;63210;53.370;6.770;2022-12-18T09:59:01;24.98;;;12.98;;
48849;SDS011;63210;53.370;6.770;2022-12-18T10:01:27;22.25;;;11.95;;
48849;SDS011;63210;53.370;6.770;2022-12-18T10:03:55;25.75;;;13.88;;
48849;SDS011;63210;53.370;6.770;2022-12-18T10:06:26;21.88;;;11.77;;
48849;SDS011;63210;53.370;6.770;2022-12-18T10:14:36;24.30;;;12.93;;
48849;SDS011;63210;53.370;6.770;2022-12-18T10:17:12;23.55;;;12.65;;
48849;SDS011;63210;53.370;6.770;2022-12-18T10:19:47;18.88;;;9.68;;
48849;SDS011;63210;53.370;6.770;2022-12-18T10:22:22;20.13;;;11.13;;
48849;SDS011;63210;53.370;6.770;2022-12-18T10:24:55;18.38;;;11.15;;
48849;SDS011;63210;53.370;6.770;2022-12-18T10:27:24;18.63;;;10.23;;
48849;SDS011;63210;53.370;6.770;2022-12-18T10:29:50;15.57;;;8.80;;
48849;SDS011;63210;53.370;6.770;2022-12-18T10:32:20;18.10;;;10.57;;
48849;SDS011;63210;53.370;6.770;2022-12-18T10:34:46;21.30;;;11.75;;
48849;SDS011;63210;53.370;6.770;2022-12-18T10:37:16;24.20;;;10.90;;
48849;SDS011;63210;53.370;6.770;2022-12-18T10:39:42;19.20;;;11.60;;
48849;SDS011;63210;53.370;6.770;2022-12-18T10:42:16;18.98;;;11.90;;
48849;SDS011;63210;53.370;6.770;2022-12-18T10:44:42;17.88;;;10.32;;
48849;SDS011;63210;53.370;6.770;2022-12-18T10:47:20;19.10;;;10.65;;
48849;SDS011;63210;53.370;6.770;2022-12-18T10:49:54;17.40;;;9.57;;
48849;SDS011;63210;53.370;6.770;2022-12-18T10:52:22;18.38;;;11.10;;
48849;SDS011;63210;53.370;6.770;2022-12-18T10:54:49;19.10;;;10.93;;
48849;SDS011;63210;53.370;6.770;2022-12-18T10:57:16;18.00;;;9.70;;
48849;SDS011;63210;53.370;6.770;2022-12-18T10:59:57;15.25;;;8.88;;
48849;SDS011;63210;53.370;6.770;2022-12-18T11:02:27;14.88;;;9.13;;
48849;SDS011;63210;53.370;6.770;2022-12-18T11:04:59;14.27;;;7.45;;
48849;SDS011;63210;53.370;6.770;2022-12-18T11:07:46;15.13;;;9.02;;
48849;SDS011;63210;53.370;6.770;2022-12-18T11:10:15;15.32;;;8.88;;
48849;SDS011;63210;53.370;6.770;2022-12-18T11:12:42;13.80;;;8.10;;
48849;SDS011;63210;53.370;6.770;2022-12-18T11:15:13;14.73;;;8.18;;
48849;SDS011;63210;53.370;6.770;2022-12-18T11:17:47;16.02;;;9.00;;
48849;SDS011;63210;53.370;6.770;2022-12-18T11:20:25;13.73;;;9.85;;
48849;SDS011;63210;53.370;6.770;2022-12-18T11:22:56;13.98;;;8.45;;
48849;SDS011;63210;53.370;6.770;2022-12-18T11:25:22;14.52;;;7.50;;
48849;SDS011;63210;53.370;6.770;2022-12-18T11:28:01;13.30;;;8.35;;
48849;SDS011;63210;53.370;6.770;2022-12-18T11:30:28;12.07;;;7.07;;
48849;SDS011;63210;53.370;6.770;2022-12-18T11:32:59;12.55;;;7.22;;
48849;SDS011;63210;53.370;6.770;2022-12-18T11:35:46;12.75;;;7.45;;
48849;SDS011;63210;53.370;6.770;2022-12-18T11:43:24;15.70;;;7.25;;
48849;SDS011;63210;53.370;6.770;2022-12-18T11:45:55;17.20;;;8.30;;
48849;SDS011;63210;53.370;6.770;2022-12-18T11:48:28;12.95;;;6.72;;
48849;SDS011;63210;53.370;6.770;2022-12-18T11:51:01;16.38;;;7.63;;
48849;SDS011;63210;53.370;6.770;2022-12-18T11:53:28;12.68;;;7.53;;
48849;SDS011;63210;53.370;6.770;2022-12-18T11:58:51;13.15;;;7.30;;
48849;SDS011;63210;53.370;6.770;2022-12-18T12:14:49;12.80;;;7.93;;
48849;SDS011;63210;53.370;6.770;2022-12-18T12:28:03;12.45;;;7.35;;
48849;SDS011;63210;53.370;6.770;2022-12-18T12:30:54;11.80;;;7.90;;
48849;SDS011;63210;53.370;6.770;2022-12-18T12:33:26;13.98;;;8.45;;
48849;SDS011;63210;53.370;6.770;2022-12-18T12:38:41;9.48;;;6.20;;
48849;SDS011;63210;53.370;6.770;2022-12-18T12:41:18;11.90;;;6.13;;
48849;SDS011;63210;53.370;6.770;2022-12-18T12:44:13;10.82;;;6.25;;
48849;SDS011;63210;53.370;6.770;2022-12-18T12:46:42;12.57;;;7.13;;
48849;SDS011;63210;53.370;6.770;2022-12-18T12:49:14;11.07;;;6.05;;
48849;SDS011;63210;53.370;6.770;2022-12-18T12:51:41;12.18;;;6.97;;
48849;SDS011;63210;53.370;6.770;2022-12-18T12:54:21;11.10;;;6.18;;
48849;SDS011;63210;53.370;6.770;2022-12-18T12:57:02;12.65;;;6.63;;
48849;SDS011;63210;53.370;6.770;2022-12-18T13:25:57;10.90;;;7.35;;
48849;SDS011;63210;53.370;6.770;2022-12-18T13:31:06;11.18;;;6.57;;
48849;SDS011;63210;53.370;6.770;2022-12-18T13:33:44;11.73;;;6.50;;
48849;SDS011;63210;53.370;6.770;2022-12-18T13:41:41;12.32;;;7.53;;
48849;SDS011;63210;53.370;6.770;2022-12-18T13:44:27;10.40;;;6.22;;
48849;SDS011;63210;53.370;6.770;2022-12-18T13:47:03;10.18;;;6.15;;
48849;SDS011;63210;53.370;6.770;2022-12-18T13:52:00;12.25;;;6.40;;
48849;SDS011;63210;53.370;6.770;2022-12-18T13:59:23;12.33;;;7.47;;
48849;SDS011;63210;53.370;6.770;2022-12-18T14:01:56;9.15;;;6.47;;
48849;SDS011;63210;53.370;6.770;2022-12-18T14:06:55;11.35;;;7.28;;
48849;SDS011;63210;53.370;6.770;2022-12-18T14:09:28;11.13;;;7.82;;
48849;SDS011;63210;53.370;6.770;2022-12-18T14:11:55;13.63;;;8.20;;
48849;SDS011;63210;53.370;6.770;2022-12-18T14:14:44;15.55;;;9.15;;
48849;SDS011;63210;53.370;6.770;2022-12-18T14:17:10;15.00;;;8.25;;
48849;SDS011;63210;53.370;6.770;2022-12-18T14:19:36;14.18;;;8.95;;
48849;SDS011;63210;53.370;6.770;2022-12-18T14:22:01;13.05;;;8.00;;
48849;SDS011;63210;53.370;6.770;2022-12-18T14:24:32;13.07;;;9.18;;
48849;SDS011;63210;53.370;6.770;2022-12-18T14:26:57;12.43;;;7.97;;
48849;SDS011;63210;53.370;6.770;2022-12-18T14:29:37;13.55;;;7.97;;
48849;SDS011;63210;53.370;6.770;2022-12-18T14:32:11;16.63;;;10.13;;
48849;SDS011;63210;53.370;6.770;2022-12-18T14:34:39;13.80;;;8.18;;
48849;SDS011;63210;53.370;6.770;2022-12-18T14:37:10;14.43;;;9.18;;
48849;SDS011;63210;53.370;6.770;2022-12-18T14:39:38;13.07;;;7.63;;
48849;SDS011;63210;53.370;6.770;2022-12-18T14:42:10;14.10;;;8.80;;
48849;SDS011;63210;53.370;6.770;2022-12-18T14:44:35;13.48;;;8.75;;
48849;SDS011;63210;53.370;6.770;2022-12-18T14:47:00;17.35;;;10.30;;
48849;SDS011;63210;53.370;6.770;2022-12-18T14:49:32;15.57;;;10.00;;
48849;SDS011;63210;53.370;6.770;2022-12-18T14:51:59;13.55;;;8.27;;
48849;SDS011;63210;53.370;6.770;2022-12-18T14:54:27;14.00;;;8.05;;
48849;SDS011;63210;53.370;6.770;2022-12-18T14:59:31;13.30;;;7.28;;
48849;SDS011;63210;53.370;6.770;2022-12-18T15:04:46;12.63;;;7.50;;
48849;SDS011;63210;53.370;6.770;2022-12-18T15:07:22;13.60;;;8.00;;
48849;SDS011;63210;53.370;6.770;2022-12-18T15:10:11;15.23;;;9.93;;
48849;SDS011;63210;53.370;6.770;2022-12-18T15:12:49;15.25;;;8.73;;
48849;SDS011;63210;53.370;6.770;2022-12-18T15:20:27;13.55;;;8.00;;
48849;SDS011;63210;53.370;6.770;2022-12-18T15:22:58;15.10;;;8.52;;
48849;SDS011;63210;53.370;6.770;2022-12-18T15:25:36;12.57;;;8.63;;
48849;SDS011;63210;53.370;6.770;2022-12-18T15:28:51;13.32;;;8.55;;
48849;SDS011;63210;53.370;6.770;2022-12-18T15:33:35;17.20;;;9.00;;
48849;SDS011;63210;53.370;6.770;2022-12-18T15:36:09;13.55;;;8.57;;
48849;SDS011;63210;53.370;6.770;2022-12-18T15:38:37;12.95;;;8.35;;
48849;SDS011;63210;53.370;6.770;2022-12-18T15:41:11;13.77;;;7.95;;
48849;SDS011;63210;53.370;6.770;2022-12-18T15:43:40;15.15;;;8.25;;
48849;SDS011;63210;53.370;6.770;2022-12-18T15:46:06;17.63;;;8.68;;
48849;SDS011;63210;53.370;6.770;2022-12-18T15:48:36;17.75;;;9.50;;
48849;SDS011;63210;53.370;6.770;2022-12-18T15:53:52;15.43;;;8.32;;
48849;SDS011;63210;53.370;6.770;2022-12-18T15:56:18;13.48;;;8.68;;
48849;SDS011;63210;53.370;6.770;2022-12-18T15:59:12;15.13;;;10.00;;
48849;SDS011;63210;53.370;6.770;2022-12-18T16:01:38;13.57;;;9.52;;
48849;SDS011;63210;53.370;6.770;2022-12-18T16:04:10;14.35;;;8.55;;
48849;SDS011;63210;53.370;6.770;2022-12-18T16:06:45;11.98;;;7.97;;
48849;SDS011;63210;53.370;6.770;2022-12-18T16:09:11;15.25;;;8.18;;
48849;SDS011;63210;53.370;6.770;2022-12-18T16:11:43;15.68;;;8.77;;
48849;SDS011;63210;53.370;6.770;2022-12-18T16:14:18;14.40;;;9.30;;
48849;SDS011;63210;53.370;6.770;2022-12-18T16:16:44;15.05;;;8.38;;
48849;SDS011;63210;53.370;6.770;2022-12-18T16:19:19;13.70;;;7.50;;
48849;SDS011;63210;53.370;6.770;2022-12-18T16:21:46;10.63;;;7.68;;
48849;SDS011;63210;53.370;6.770;2022-12-18T16:24:25;15.70;;;9.13;;
48849;SDS011;63210;53.370;6.770;2022-12-18T16:26:53;11.15;;;6.78;;
48849;SDS011;63210;53.370;6.770;2022-12-18T16:29:27;16.67;;;8.32;;
48849;SDS011;63210;53.370;6.770;2022-12-18T16:31:55;27.05;;;12.35;;
48849;SDS011;63210;53.370;6.770;2022-12-18T16:34:27;17.58;;;10.68;;
48849;SDS011;63210;53.370;6.770;2022-12-18T16:39:33;13.90;;;9.00;;
48849;SDS011;63210;53.370;6.770;2022-12-18T16:41:59;12.52;;;6.60;;
48849;SDS011;63210;53.370;6.770;2022-12-18T16:44:28;13.73;;;9.05;;
48849;SDS011;63210;53.370;6.770;2022-12-18T16:46:59;13.75;;;9.10;;
48849;SDS011;63210;53.370;6.770;2022-12-18T16:49:31;15.13;;;7.40;;
48849;SDS011;63210;53.370;6.770;2022-12-18T16:52:08;14.32;;;8.20;;
48849;SDS011;63210;53.370;6.770;2022-12-18T16:54:34;9.98;;;6.18;;
48849;SDS011;63210;53.370;6.770;2022-12-18T16:57:00;13.23;;;8.80;;